sensor_id;sensor_type;location;lat;lon;timestamp;P1;durP1;ratioP1;P2;durP2;ratioP2
86271;SDS011;76930;50.692;16.628;2024-03-02T00:01:45;17.90;;;11.10;;
86271;SDS011;76930;50.692;16.628;2024-03-02T00:05:35;16.00;;;9.90;;
86271;SDS011;76930;50.692;16.628;2024-03-02T00:08:03;17.80;;;10.80;;
86271;SDS011;76930;50.692;16.628;2024-03-02T00:10:38;19.20;;;11.00;;
86271;SDS011;76930;50.692;16.628;2024-03-02T00:13:09;18.30;;;11.20;;
86271;SDS011;76930;50.692;16.628;2024-03-02T00:18:18;18.90;;;11.50;;
86271;SDS011;76930;50.692;16.628;2024-03-02T00:20:46;18.20;;;11.70;;
86271;SDS011;76930;50.692;16.628;2024-03-02T00:23:14;18.80;;;11.40;;
86271;SDS011;76930;50.692;16.628;2024-03-02T00:25:43;17.90;;;11.00;;
86271;SDS011;76930;50.692;16.628;2024-03-02T00:28:13;19.30;;;11.20;;
86271;SDS011;76930;50.692;16.628;2024-03-02T00:33:10;17.70;;;10.00;;
86271;SDS011;76930;50.692;16.628;2024-03-02T00:35:39;19.50;;;11.20;;
86271;SDS011;76930;50.692;16.628;2024-03-02T00:38:07;17.00;;;10.70;;
86271;SDS011;76930;50.692;16.628;2024-03-02T00:40:34;19.40;;;10.70;;
86271;SDS011;76930;50.692;16.628;2024-03-02T00:43:01;18.50;;;11.70;;
86271;SDS011;76930;50.692;16.628;2024-03-02T00:45:30;16.00;;;10.10;;
86271;SDS011;76930;50.692;16.628;2024-03-02T00:47:58;16.90;;;11.30;;
86271;SDS011;76930;50.692;16.628;2024-03-02T00:50:25;20.80;;;11.40;;
86271;SDS011;76930;50.692;16.628;2024-03-02T00:55:11;15.00;;;9.60;;
86271;SDS011;76930;50.692;16.628;2024-03-02T00:57:39;14.70;;;10.40;;
86271;SDS011;76930;50.692;16.628;2024-03-02T01:01:05;18.60;;;11.30;;
86271;SDS011;76930;50.692;16.628;2024-03-02T01:03:34;17.80;;;11.00;;
86271;SDS011;76930;50.692;16.628;2024-03-02T01:06:20;22.50;;;12.90;;
86271;SDS011;76930;50.692;16.628;2024-03-02T01:10:15;19.70;;;12.10;;
86271;SDS011;76930;50.692;16.628;2024-03-02T01:12:43;22.40;;;14.30;;
86271;SDS011;76930;50.692;16.628;2024-03-02T01:15:11;22.00;;;13.90;;
86271;SDS011;76930;50.692;16.628;2024-03-02T01:17:39;22.80;;;14.60;;
86271;SDS011;76930;50.692;16.628;2024-03-02T01:20:07;21.60;;;14.30;;
86271;SDS011;76930;50.692;16.628;2024-03-02T01:22:36;21.00;;;14.80;;
86271;SDS011;76930;50.692;16.628;2024-03-02T01:25:04;21.30;;;14.10;;
86271;SDS011;76930;50.692;16.628;2024-03-02T01:27:34;20.80;;;13.90;;
86271;SDS011;76930;50.692;16.628;2024-03-02T01:30:01;19.20;;;13.00;;
86271;SDS011;76930;50.692;16.628;2024-03-02T01:32:28;22.30;;;14.10;;
86271;SDS011;76930;50.692;16.628;2024-03-02T01:34:56;19.70;;;13.30;;
86271;SDS011;76930;50.692;16.628;2024-03-02T01:37:23;21.00;;;13.70;;
86271;SDS011;76930;50.692;16.628;2024-03-02T01:39:50;22.00;;;14.90;;
86271;SDS011;76930;50.692;16.628;2024-03-02T01:42:18;25.90;;;15.80;;
86271;SDS011;76930;50.692;16.628;2024-03-02T01:44:45;23.30;;;15.80;;
86271;SDS011;76930;50.692;16.628;2024-03-02T01:47:12;24.50;;;15.60;;
86271;SDS011;76930;50.692;16.628;2024-03-02T01:49:41;23.00;;;14.50;;
86271;SDS011;76930;50.692;16.628;2024-03-02T01:52:08;25.10;;;16.10;;
86271;SDS011;76930;50.692;16.628;2024-03-02T01:54:36;28.70;;;17.40;;
86271;SDS011;76930;50.692;16.628;2024-03-02T01:57:03;25.70;;;15.30;;
86271;SDS011;76930;50.692;16.628;2024-03-02T01:59:31;24.60;;;15.90;;
86271;SDS011;76930;50.692;16.628;2024-03-02T02:01:58;26.40;;;16.50;;
86271;SDS011;76930;50.692;16.628;2024-03-02T02:04:26;22.00;;;12.50;;
86271;SDS011;76930;50.692;16.628;2024-03-02T02:06:54;28.40;;;16.50;;
86271;SDS011;76930;50.692;16.628;2024-03-02T02:11:51;22.60;;;14.50;;
86271;SDS011;76930;50.692;16.628;2024-03-02T02:14:18;24.20;;;15.00;;
86271;SDS011;76930;50.692;16.628;2024-03-02T02:16:45;27.10;;;16.90;;
86271;SDS011;76930;50.692;16.628;2024-03-02T02:19:12;27.30;;;17.70;;
86271;SDS011;76930;50.692;16.628;2024-03-02T02:21:42;23.50;;;13.40;;
86271;SDS011;76930;50.692;16.628;2024-03-02T02:24:10;25.10;;;16.30;;
86271;SDS011;76930;50.692;16.628;2024-03-02T02:26:40;28.30;;;16.40;;
86271;SDS011;76930;50.692;16.628;2024-03-02T02:29:11;31.30;;;17.80;;
86271;SDS011;76930;50.692;16.628;2024-03-02T02:31:39;26.00;;;16.80;;
86271;SDS011;76930;50.692;16.628;2024-03-02T02:34:06;27.40;;;17.90;;
86271;SDS011;76930;50.692;16.628;2024-03-02T02:36:34;23.20;;;16.40;;
86271;SDS011;76930;50.692;16.628;2024-03-02T02:39:07;22.60;;;15.50;;
86271;SDS011;76930;50.692;16.628;2024-03-02T02:41:38;24.40;;;15.60;;
86271;SDS011;76930;50.692;16.628;2024-03-02T02:44:06;24.20;;;16.10;;
86271;SDS011;76930;50.692;16.628;2024-03-02T02:46:34;24.10;;;16.70;;
86271;SDS011;76930;50.692;16.628;2024-03-02T02:49:01;23.90;;;17.00;;
86271;SDS011;76930;50.692;16.628;2024-03-02T02:51:29;22.30;;;15.70;;
86271;SDS011;76930;50.692;16.628;2024-03-02T02:53:56;17.90;;;11.90;;
86271;SDS011;76930;50.692;16.628;2024-03-02T02:56:23;23.10;;;15.00;;
86271;SDS011;76930;50.692;16.628;2024-03-02T02:58:50;20.60;;;13.80;;
86271;SDS011;76930;50.692;16.628;2024-03-02T03:01:17;18.70;;;11.30;;
86271;SDS011;76930;50.692;16.628;2024-03-02T03:03:45;19.80;;;13.40;;
86271;SDS011;76930;50.692;16.628;2024-03-02T03:06:12;20.50;;;14.40;;
86271;SDS011;76930;50.692;16.628;2024-03-02T03:08:40;23.20;;;15.50;;
86271;SDS011;76930;50.692;16.628;2024-03-02T03:11:07;16.60;;;9.90;;
86271;SDS011;76930;50.692;16.628;2024-03-02T03:13:34;20.20;;;13.10;;
86271;SDS011;76930;50.692;16.628;2024-03-02T03:16:01;25.80;;;15.20;;
86271;SDS011;76930;50.692;16.628;2024-03-02T03:18:29;22.30;;;14.00;;
86271;SDS011;76930;50.692;16.628;2024-03-02T03:20:57;19.20;;;14.00;;
86271;SDS011;76930;50.692;16.628;2024-03-02T03:23:25;22.30;;;13.90;;
86271;SDS011;76930;50.692;16.628;2024-03-02T03:25:52;23.20;;;12.40;;
86271;SDS011;76930;50.692;16.628;2024-03-02T03:28:20;21.10;;;14.10;;
86271;SDS011;76930;50.692;16.628;2024-03-02T03:30:48;19.80;;;13.40;;
86271;SDS011;76930;50.692;16.628;2024-03-02T03:33:16;19.50;;;13.70;;
86271;SDS011;76930;50.692;16.628;2024-03-02T03:35:45;24.20;;;16.10;;
86271;SDS011;76930;50.692;16.628;2024-03-02T03:38:12;25.00;;;17.60;;
86271;SDS011;76930;50.692;16.628;2024-03-02T03:40:40;24.10;;;15.30;;
86271;SDS011;76930;50.692;16.628;2024-03-02T03:43:07;24.00;;;15.70;;
86271;SDS011;76930;50.692;16.628;2024-03-02T03:45:34;21.70;;;13.30;;
86271;SDS011;76930;50.692;16.628;2024-03-02T03:48:02;19.20;;;13.50;;
86271;SDS011;76930;50.692;16.628;2024-03-02T03:50:29;20.10;;;14.20;;
86271;SDS011;76930;50.692;16.628;2024-03-02T03:52:56;22.40;;;15.20;;
86271;SDS011;76930;50.692;16.628;2024-03-02T03:55:23;22.10;;;15.50;;
86271;SDS011;76930;50.692;16.628;2024-03-02T03:57:50;24.00;;;16.80;;
86271;SDS011;76930;50.692;16.628;2024-03-02T04:00:17;24.10;;;16.50;;
86271;SDS011;76930;50.692;16.628;2024-03-02T04:02:45;24.10;;;17.20;;
86271;SDS011;76930;50.692;16.628;2024-03-02T04:05:12;22.60;;;15.90;;
86271;SDS011;76930;50.692;16.628;2024-03-02T04:07:40;24.50;;;15.70;;
86271;SDS011;76930;50.692;16.628;2024-03-02T04:10:08;23.90;;;15.50;;
86271;SDS011;76930;50.692;16.628;2024-03-02T04:12:36;25.40;;;17.90;;
86271;SDS011;76930;50.692;16.628;2024-03-02T04:15:07;24.30;;;16.80;;
86271;SDS011;76930;50.692;16.628;2024-03-02T04:17:34;23.10;;;15.80;;
86271;SDS011;76930;50.692;16.628;2024-03-02T04:20:02;25.90;;;17.10;;
86271;SDS011;76930;50.692;16.628;2024-03-02T04:22:32;22.40;;;15.70;;
86271;SDS011;76930;50.692;16.628;2024-03-02T04:25:01;27.90;;;19.70;;
86271;SDS011;76930;50.692;16.628;2024-03-02T04:27:31;20.30;;;14.80;;
86271;SDS011;76930;50.692;16.628;2024-03-02T04:30:00;23.00;;;15.80;;
86271;SDS011;76930;50.692;16.628;2024-03-02T04:32:27;25.70;;;18.80;;
86271;SDS011;76930;50.692;16.628;2024-03-02T04:34:55;34.20;;;24.00;;
86271;SDS011;76930;50.692;16.628;2024-03-02T04:37:23;27.20;;;18.30;;
86271;SDS011;76930;50.692;16.628;2024-03-02T04:39:50;23.60;;;15.10;;
86271;SDS011;76930;50.692;16.628;2024-03-02T04:42:18;23.30;;;17.60;;
86271;SDS011;76930;50.692;16.628;2024-03-02T04:44:45;24.00;;;17.50;;
86271;SDS011;76930;50.692;16.628;2024-03-02T04:47:13;26.70;;;16.90;;
86271;SDS011;76930;50.692;16.628;2024-03-02T04:49:40;25.40;;;17.80;;
86271;SDS011;76930;50.692;16.628;2024-03-02T04:52:09;22.30;;;17.40;;
86271;SDS011;76930;50.692;16.628;2024-03-02T04:54:37;25.10;;;17.20;;
86271;SDS011;76930;50.692;16.628;2024-03-02T04:57:24;27.10;;;17.10;;
86271;SDS011;76930;50.692;16.628;2024-03-02T04:59:52;53.90;;;31.20;;
86271;SDS011;76930;50.692;16.628;2024-03-02T05:02:19;72.60;;;42.70;;
86271;SDS011;76930;50.692;16.628;2024-03-02T05:04:47;122.10;;;69.80;;
86271;SDS011;76930;50.692;16.628;2024-03-02T05:07:15;85.20;;;55.00;;
86271;SDS011;76930;50.692;16.628;2024-03-02T05:09:44;283.10;;;139.40;;
86271;SDS011;76930;50.692;16.628;2024-03-02T05:12:11;265.20;;;111.20;;
86271;SDS011;76930;50.692;16.628;2024-03-02T05:14:58;374.80;;;141.30;;
86271;SDS011;76930;50.692;16.628;2024-03-02T05:17:26;257.80;;;96.10;;
86271;SDS011;76930;50.692;16.628;2024-03-02T05:19:55;611.30;;;219.80;;
86271;SDS011;76930;50.692;16.628;2024-03-02T05:22:23;810.60;;;302.00;;
86271;SDS011;76930;50.692;16.628;2024-03-02T05:24:51;920.50;;;329.00;;
86271;SDS011;76930;50.692;16.628;2024-03-02T05:27:18;520.70;;;165.90;;
86271;SDS011;76930;50.692;16.628;2024-03-02T05:29:45;378.30;;;121.90;;
86271;SDS011;76930;50.692;16.628;2024-03-02T05:32:12;130.60;;;49.90;;
86271;SDS011;76930;50.692;16.628;2024-03-02T05:34:39;271.90;;;85.30;;
86271;SDS011;76930;50.692;16.628;2024-03-02T05:37:06;394.20;;;117.30;;
86271;SDS011;76930;50.692;16.628;2024-03-02T05:39:34;52.90;;;26.30;;
86271;SDS011;76930;50.692;16.628;2024-03-02T05:42:01;274.60;;;82.20;;
86271;SDS011;76930;50.692;16.628;2024-03-02T05:44:29;60.00;;;29.00;;
86271;SDS011;76930;50.692;16.628;2024-03-02T05:46:56;48.70;;;24.60;;
86271;SDS011;76930;50.692;16.628;2024-03-02T05:49:23;29.40;;;17.30;;
86271;SDS011;76930;50.692;16.628;2024-03-02T05:51:50;32.70;;;21.70;;
86271;SDS011;76930;50.692;16.628;2024-03-02T05:54:18;41.20;;;24.50;;
86271;SDS011;76930;50.692;16.628;2024-03-02T05:56:45;124.30;;;54.10;;
86271;SDS011;76930;50.692;16.628;2024-03-02T05:59:12;30.60;;;19.20;;
86271;SDS011;76930;50.692;16.628;2024-03-02T06:01:41;27.50;;;17.50;;
86271;SDS011;76930;50.692;16.628;2024-03-02T06:04:10;32.30;;;20.10;;
86271;SDS011;76930;50.692;16.628;2024-03-02T06:06:38;31.40;;;21.70;;
86271;SDS011;76930;50.692;16.628;2024-03-02T06:09:05;31.70;;;19.00;;
86271;SDS011;76930;50.692;16.628;2024-03-02T06:11:35;24.80;;;17.60;;
86271;SDS011;76930;50.692;16.628;2024-03-02T06:14:04;28.40;;;16.30;;
86271;SDS011;76930;50.692;16.628;2024-03-02T06:16:32;29.90;;;17.80;;
86271;SDS011;76930;50.692;16.628;2024-03-02T06:19:01;29.70;;;17.90;;
86271;SDS011;76930;50.692;16.628;2024-03-02T06:21:29;28.60;;;17.90;;
86271;SDS011;76930;50.692;16.628;2024-03-02T06:23:58;25.50;;;16.50;;
86271;SDS011;76930;50.692;16.628;2024-03-02T06:28:53;25.50;;;16.40;;
86271;SDS011;76930;50.692;16.628;2024-03-02T06:31:22;25.70;;;15.30;;
86271;SDS011;76930;50.692;16.628;2024-03-02T06:33:49;28.40;;;17.80;;
86271;SDS011;76930;50.692;16.628;2024-03-02T06:36:16;23.70;;;16.50;;
86271;SDS011;76930;50.692;16.628;2024-03-02T06:38:45;26.70;;;16.00;;
86271;SDS011;76930;50.692;16.628;2024-03-02T06:41:12;27.10;;;16.70;;
86271;SDS011;76930;50.692;16.628;2024-03-02T06:43:39;24.10;;;15.70;;
86271;SDS011;76930;50.692;16.628;2024-03-02T06:46:06;27.10;;;16.60;;
86271;SDS011;76930;50.692;16.628;2024-03-02T06:48:36;26.50;;;15.60;;
86271;SDS011;76930;50.692;16.628;2024-03-02T06:51:03;23.40;;;14.30;;
86271;SDS011;76930;50.692;16.628;2024-03-02T06:53:30;22.70;;;14.50;;
86271;SDS011;76930;50.692;16.628;2024-03-02T06:56:00;22.20;;;15.10;;
86271;SDS011;76930;50.692;16.628;2024-03-02T06:58:31;24.70;;;16.10;;
86271;SDS011;76930;50.692;16.628;2024-03-02T07:00:58;27.30;;;19.80;;
86271;SDS011;76930;50.692;16.628;2024-03-02T07:03:27;12.40;;;7.40;;
86271;SDS011;76930;50.692;16.628;2024-03-02T07:05:54;20.00;;;13.50;;
86271;SDS011;76930;50.692;16.628;2024-03-02T07:08:21;24.90;;;14.20;;
86271;SDS011;76930;50.692;16.628;2024-03-02T07:10:49;31.70;;;22.00;;
86271;SDS011;76930;50.692;16.628;2024-03-02T07:13:16;20.40;;;15.80;;
86271;SDS011;76930;50.692;16.628;2024-03-02T07:15:43;24.10;;;13.30;;
86271;SDS011;76930;50.692;16.628;2024-03-02T07:18:21;24.10;;;14.10;;
86271;SDS011;76930;50.692;16.628;2024-03-02T07:20:48;17.10;;;12.10;;
86271;SDS011;76930;50.692;16.628;2024-03-02T07:23:16;20.90;;;14.40;;
86271;SDS011;76930;50.692;16.628;2024-03-02T07:25:43;21.10;;;13.40;;
86271;SDS011;76930;50.692;16.628;2024-03-02T07:28:32;19.00;;;13.00;;
86271;SDS011;76930;50.692;16.628;2024-03-02T07:31:00;18.80;;;12.90;;
86271;SDS011;76930;50.692;16.628;2024-03-02T07:33:31;18.60;;;12.80;;
86271;SDS011;76930;50.692;16.628;2024-03-02T07:36:02;20.80;;;11.80;;
86271;SDS011;76930;50.692;16.628;2024-03-02T07:38:31;16.10;;;11.30;;
86271;SDS011;76930;50.692;16.628;2024-03-02T07:41:01;16.60;;;11.70;;
86271;SDS011;76930;50.692;16.628;2024-03-02T07:43:28;19.60;;;11.80;;
86271;SDS011;76930;50.692;16.628;2024-03-02T07:45:55;17.50;;;11.80;;
86271;SDS011;76930;50.692;16.628;2024-03-02T07:48:23;16.90;;;11.60;;
86271;SDS011;76930;50.692;16.628;2024-03-02T07:50:50;17.40;;;11.30;;
86271;SDS011;76930;50.692;16.628;2024-03-02T07:53:17;20.30;;;12.60;;
86271;SDS011;76930;50.692;16.628;2024-03-02T07:55:45;15.80;;;11.30;;
86271;SDS011;76930;50.692;16.628;2024-03-02T07:58:12;19.80;;;13.40;;
86271;SDS011;76930;50.692;16.628;2024-03-02T08:00:39;20.40;;;12.60;;
86271;SDS011;76930;50.692;16.628;2024-03-02T08:03:07;20.00;;;13.20;;
86271;SDS011;76930;50.692;16.628;2024-03-02T08:05:38;20.90;;;14.10;;
86271;SDS011;76930;50.692;16.628;2024-03-02T08:08:06;19.30;;;13.70;;
86271;SDS011;76930;50.692;16.628;2024-03-02T08:10:42;18.50;;;12.60;;
86271;SDS011;76930;50.692;16.628;2024-03-02T08:13:09;17.60;;;13.80;;
86271;SDS011;76930;50.692;16.628;2024-03-02T08:15:36;20.60;;;12.80;;
86271;SDS011;76930;50.692;16.628;2024-03-02T08:18:03;20.50;;;12.20;;
86271;SDS011;76930;50.692;16.628;2024-03-02T08:22:58;13.10;;;9.50;;
86271;SDS011;76930;50.692;16.628;2024-03-02T08:25:28;17.90;;;13.90;;
86271;SDS011;76930;50.692;16.628;2024-03-02T08:27:57;17.70;;;12.80;;
86271;SDS011;76930;50.692;16.628;2024-03-02T08:30:25;18.30;;;13.10;;
86271;SDS011;76930;50.692;16.628;2024-03-02T08:32:52;15.40;;;10.70;;
86271;SDS011;76930;50.692;16.628;2024-03-02T08:35:19;20.40;;;14.40;;
86271;SDS011;76930;50.692;16.628;2024-03-02T08:37:46;17.30;;;12.50;;
86271;SDS011;76930;50.692;16.628;2024-03-02T08:40:16;17.10;;;12.50;;
86271;SDS011;76930;50.692;16.628;2024-03-02T08:42:45;17.00;;;12.70;;
86271;SDS011;76930;50.692;16.628;2024-03-02T08:45:14;16.70;;;11.30;;
86271;SDS011;76930;50.692;16.628;2024-03-02T08:47:41;18.70;;;13.10;;
86271;SDS011;76930;50.692;16.628;2024-03-02T08:50:08;20.60;;;14.10;;
86271;SDS011;76930;50.692;16.628;2024-03-02T08:52:36;12.70;;;9.50;;
86271;SDS011;76930;50.692;16.628;2024-03-02T08:55:04;18.90;;;12.60;;
86271;SDS011;76930;50.692;16.628;2024-03-02T08:57:31;15.70;;;10.20;;
86271;SDS011;76930;50.692;16.628;2024-03-02T09:00:02;16.30;;;12.10;;
86271;SDS011;76930;50.692;16.628;2024-03-02T09:02:29;17.90;;;12.30;;
86271;SDS011;76930;50.692;16.628;2024-03-02T09:04:56;14.70;;;10.40;;
86271;SDS011;76930;50.692;16.628;2024-03-02T09:07:25;14.60;;;10.20;;
86271;SDS011;76930;50.692;16.628;2024-03-02T09:09:55;11.20;;;9.00;;
86271;SDS011;76930;50.692;16.628;2024-03-02T09:12:25;16.00;;;10.70;;
86271;SDS011;76930;50.692;16.628;2024-03-02T09:14:52;14.30;;;11.60;;
86271;SDS011;76930;50.692;16.628;2024-03-02T09:17:20;12.50;;;8.70;;
86271;SDS011;76930;50.692;16.628;2024-03-02T09:19:47;14.30;;;10.40;;
86271;SDS011;76930;50.692;16.628;2024-03-02T09:22:19;17.60;;;10.20;;
86271;SDS011;76930;50.692;16.628;2024-03-02T09:24:46;14.40;;;10.40;;
86271;SDS011;76930;50.692;16.628;2024-03-02T09:27:14;14.20;;;10.10;;
86271;SDS011;76930;50.692;16.628;2024-03-02T09:29:41;16.70;;;9.00;;
86271;SDS011;76930;50.692;16.628;2024-03-02T09:32:08;16.80;;;9.30;;
86271;SDS011;76930;50.692;16.628;2024-03-02T09:34:40;14.30;;;8.60;;
86271;SDS011;76930;50.692;16.628;2024-03-02T09:42:03;13.50;;;9.00;;
86271;SDS011;76930;50.692;16.628;2024-03-02T09:44:33;11.90;;;8.00;;
86271;SDS011;76930;50.692;16.628;2024-03-02T09:47:02;14.20;;;9.40;;
86271;SDS011;76930;50.692;16.628;2024-03-02T09:49:30;14.30;;;9.20;;
86271;SDS011;76930;50.692;16.628;2024-03-02T09:51:57;15.20;;;10.70;;
86271;SDS011;76930;50.692;16.628;2024-03-02T09:54:24;9.80;;;7.10;;
86271;SDS011;76930;50.692;16.628;2024-03-02T09:56:51;8.70;;;5.50;;
86271;SDS011;76930;50.692;16.628;2024-03-02T09:59:18;13.50;;;8.70;;
86271;SDS011;76930;50.692;16.628;2024-03-02T10:02:00;12.80;;;9.40;;
86271;SDS011;76930;50.692;16.628;2024-03-02T10:04:30;15.40;;;10.10;;
86271;SDS011;76930;50.692;16.628;2024-03-02T10:09:45;15.90;;;9.90;;
86271;SDS011;76930;50.692;16.628;2024-03-02T10:12:14;12.40;;;8.70;;
86271;SDS011;76930;50.692;16.628;2024-03-02T10:14:43;14.40;;;8.90;;
86271;SDS011;76930;50.692;16.628;2024-03-02T10:17:11;11.40;;;8.00;;
86271;SDS011;76930;50.692;16.628;2024-03-02T10:19:40;13.50;;;9.40;;
86271;SDS011;76930;50.692;16.628;2024-03-02T10:22:08;11.20;;;7.80;;
86271;SDS011;76930;50.692;16.628;2024-03-02T10:27:17;17.60;;;9.90;;
86271;SDS011;76930;50.692;16.628;2024-03-02T10:29:50;12.30;;;8.50;;
86271;SDS011;76930;50.692;16.628;2024-03-02T10:32:17;9.90;;;7.30;;
86271;SDS011;76930;50.692;16.628;2024-03-02T10:34:46;14.00;;;8.50;;
86271;SDS011;76930;50.692;16.628;2024-03-02T10:39:42;14.20;;;8.70;;
86271;SDS011;76930;50.692;16.628;2024-03-02T10:42:09;14.40;;;7.80;;
86271;SDS011;76930;50.692;16.628;2024-03-02T10:44:43;8.20;;;5.10;;
86271;SDS011;76930;50.692;16.628;2024-03-02T10:47:12;13.80;;;9.00;;
86271;SDS011;76930;50.692;16.628;2024-03-02T10:49:41;12.10;;;6.90;;
86271;SDS011;76930;50.692;16.628;2024-03-02T10:52:10;10.20;;;6.90;;
86271;SDS011;76930;50.692;16.628;2024-03-02T10:54:38;13.80;;;8.60;;
86271;SDS011;76930;50.692;16.628;2024-03-02T10:57:07;10.60;;;8.00;;
86271;SDS011;76930;50.692;16.628;2024-03-02T10:59:37;16.50;;;9.10;;
86271;SDS011;76930;50.692;16.628;2024-03-02T11:02:09;12.70;;;9.10;;
86271;SDS011;76930;50.692;16.628;2024-03-02T11:04:39;12.50;;;9.10;;
86271;SDS011;76930;50.692;16.628;2024-03-02T11:07:10;12.40;;;7.20;;
86271;SDS011;76930;50.692;16.628;2024-03-02T11:09:41;9.40;;;6.60;;
86271;SDS011;76930;50.692;16.628;2024-03-02T11:12:30;11.30;;;8.10;;
86271;SDS011;76930;50.692;16.628;2024-03-02T11:15:04;12.40;;;7.70;;
86271;SDS011;76930;50.692;16.628;2024-03-02T11:17:39;10.90;;;7.80;;
86271;SDS011;76930;50.692;16.628;2024-03-02T11:20:08;11.20;;;8.70;;
86271;SDS011;76930;50.692;16.628;2024-03-02T11:22:36;10.40;;;7.40;;
86271;SDS011;76930;50.692;16.628;2024-03-02T11:25:04;13.50;;;7.60;;
86271;SDS011;76930;50.692;16.628;2024-03-02T11:32:59;12.00;;;7.40;;
86271;SDS011;76930;50.692;16.628;2024-03-02T11:35:27;15.80;;;8.00;;
86271;SDS011;76930;50.692;16.628;2024-03-02T11:37:55;9.60;;;6.50;;
86271;SDS011;76930;50.692;16.628;2024-03-02T11:40:28;14.10;;;8.40;;
86271;SDS011;76930;50.692;16.628;2024-03-02T11:42:56;12.10;;;7.80;;
86271;SDS011;76930;50.692;16.628;2024-03-02T11:45:25;9.70;;;6.20;;
86271;SDS011;76930;50.692;16.628;2024-03-02T11:47:54;14.10;;;8.70;;
86271;SDS011;76930;50.692;16.628;2024-03-02T11:50:57;9.40;;;7.10;;
86271;SDS011;76930;50.692;16.628;2024-03-02T11:53:19;12.70;;;9.40;;
86271;SDS011;76930;50.692;16.628;2024-03-02T11:55:50;11.00;;;7.90;;
86271;SDS011;76930;50.692;16.628;2024-03-02T11:58:19;12.90;;;8.10;;
86271;SDS011;76930;50.692;16.628;2024-03-02T12:00:50;14.80;;;8.70;;
86271;SDS011;76930;50.692;16.628;2024-03-02T12:03:20;14.90;;;8.50;;
86271;SDS011;76930;50.692;16.628;2024-03-02T12:05:50;15.90;;;9.40;;
86271;SDS011;76930;50.692;16.628;2024-03-02T12:08:22;8.90;;;5.50;;
86271;SDS011;76930;50.692;16.628;2024-03-02T12:10:57;14.00;;;9.00;;
86271;SDS011;76930;50.692;16.628;2024-03-02T12:13:27;13.90;;;8.20;;
86271;SDS011;76930;50.692;16.628;2024-03-02T12:15:55;11.00;;;6.80;;
86271;SDS011;76930;50.692;16.628;2024-03-02T12:18:24;13.70;;;6.70;;
86271;SDS011;76930;50.692;16.628;2024-03-02T12:20:52;11.90;;;8.50;;
86271;SDS011;76930;50.692;16.628;2024-03-02T12:23:23;12.50;;;8.10;;
86271;SDS011;76930;50.692;16.628;2024-03-02T12:25:51;9.20;;;6.80;;
86271;SDS011;76930;50.692;16.628;2024-03-02T12:28:19;11.20;;;7.10;;
86271;SDS011;76930;50.692;16.628;2024-03-02T12:30:46;14.50;;;9.60;;
86271;SDS011;76930;50.692;16.628;2024-03-02T12:35:43;14.90;;;9.30;;
86271;SDS011;76930;50.692;16.628;2024-03-02T12:38:10;8.00;;;6.10;;
86271;SDS011;76930;50.692;16.628;2024-03-02T12:40:38;13.70;;;8.30;;
86271;SDS011;76930;50.692;16.628;2024-03-02T12:43:07;11.60;;;7.50;;
86271;SDS011;76930;50.692;16.628;2024-03-02T12:45:35;13.20;;;8.50;;
86271;SDS011;76930;50.692;16.628;2024-03-02T12:48:02;8.60;;;6.70;;
86271;SDS011;76930;50.692;16.628;2024-03-02T12:50:32;9.60;;;7.90;;
86271;SDS011;76930;50.692;16.628;2024-03-02T12:55:27;13.60;;;8.90;;
86271;SDS011;76930;50.692;16.628;2024-03-02T12:57:58;17.70;;;10.60;;
86271;SDS011;76930;50.692;16.628;2024-03-02T13:00:26;20.00;;;11.80;;
86271;SDS011;76930;50.692;16.628;2024-03-02T13:02:53;12.80;;;7.60;;
86271;SDS011;76930;50.692;16.628;2024-03-02T13:05:24;14.90;;;9.10;;
86271;SDS011;76930;50.692;16.628;2024-03-02T13:07:55;14.10;;;9.50;;
86271;SDS011;76930;50.692;16.628;2024-03-02T13:10:23;15.20;;;10.70;;
86271;SDS011;76930;50.692;16.628;2024-03-02T13:12:51;13.80;;;8.80;;
86271;SDS011;76930;50.692;16.628;2024-03-02T13:15:21;11.20;;;6.20;;
86271;SDS011;76930;50.692;16.628;2024-03-02T13:17:50;13.20;;;8.20;;
86271;SDS011;76930;50.692;16.628;2024-03-02T13:20:17;12.40;;;8.30;;
86271;SDS011;76930;50.692;16.628;2024-03-02T13:22:49;11.80;;;8.30;;
86271;SDS011;76930;50.692;16.628;2024-03-02T13:25:16;11.20;;;7.60;;
86271;SDS011;76930;50.692;16.628;2024-03-02T13:27:44;12.30;;;7.70;;
86271;SDS011;76930;50.692;16.628;2024-03-02T13:30:11;12.50;;;8.80;;
86271;SDS011;76930;50.692;16.628;2024-03-02T13:32:38;12.40;;;8.70;;
86271;SDS011;76930;50.692;16.628;2024-03-02T13:35:05;15.20;;;10.40;;
86271;SDS011;76930;50.692;16.628;2024-03-02T13:37:33;19.10;;;10.20;;
86271;SDS011;76930;50.692;16.628;2024-03-02T13:40:06;16.40;;;10.80;;
86271;SDS011;76930;50.692;16.628;2024-03-02T13:42:40;21.10;;;12.70;;
86271;SDS011;76930;50.692;16.628;2024-03-02T13:45:07;12.00;;;8.50;;
86271;SDS011;76930;50.692;16.628;2024-03-02T13:47:36;13.30;;;8.10;;
86271;SDS011;76930;50.692;16.628;2024-03-02T13:50:03;13.20;;;8.60;;
86271;SDS011;76930;50.692;16.628;2024-03-02T13:52:31;11.60;;;8.30;;
86271;SDS011;76930;50.692;16.628;2024-03-02T13:55:00;11.00;;;8.30;;
86271;SDS011;76930;50.692;16.628;2024-03-02T13:57:28;12.50;;;9.30;;
86271;SDS011;76930;50.692;16.628;2024-03-02T13:59:55;13.40;;;9.20;;
86271;SDS011;76930;50.692;16.628;2024-03-02T14:02:22;19.70;;;12.10;;
86271;SDS011;76930;50.692;16.628;2024-03-02T14:04:50;14.20;;;10.00;;
86271;SDS011;76930;50.692;16.628;2024-03-02T14:07:17;14.50;;;10.10;;
86271;SDS011;76930;50.692;16.628;2024-03-02T14:09:45;16.80;;;11.80;;
86271;SDS011;76930;50.692;16.628;2024-03-02T14:12:15;13.50;;;9.30;;
86271;SDS011;76930;50.692;16.628;2024-03-02T14:14:42;17.30;;;10.90;;
86271;SDS011;76930;50.692;16.628;2024-03-02T14:17:10;15.20;;;10.00;;
86271;SDS011;76930;50.692;16.628;2024-03-02T14:19:46;13.50;;;9.60;;
86271;SDS011;76930;50.692;16.628;2024-03-02T14:24:44;14.80;;;10.20;;
86271;SDS011;76930;50.692;16.628;2024-03-02T14:27:11;20.80;;;11.80;;
86271;SDS011;76930;50.692;16.628;2024-03-02T14:29:58;17.70;;;10.00;;
86271;SDS011;76930;50.692;16.628;2024-03-02T14:32:25;15.40;;;9.50;;
86271;SDS011;76930;50.692;16.628;2024-03-02T14:34:53;11.10;;;7.80;;
86271;SDS011;76930;50.692;16.628;2024-03-02T14:37:21;12.20;;;8.70;;
86271;SDS011;76930;50.692;16.628;2024-03-02T14:39:49;13.30;;;9.00;;
86271;SDS011;76930;50.692;16.628;2024-03-02T14:42:17;12.50;;;9.00;;
86271;SDS011;76930;50.692;16.628;2024-03-02T14:44:44;16.40;;;9.00;;
86271;SDS011;76930;50.692;16.628;2024-03-02T14:47:12;12.80;;;8.70;;
86271;SDS011;76930;50.692;16.628;2024-03-02T14:49:39;10.20;;;7.40;;
86271;SDS011;76930;50.692;16.628;2024-03-02T14:52:07;12.90;;;8.20;;
86271;SDS011;76930;50.692;16.628;2024-03-02T14:54:37;14.30;;;8.50;;
86271;SDS011;76930;50.692;16.628;2024-03-02T14:57:05;11.10;;;8.40;;
86271;SDS011;76930;50.692;16.628;2024-03-02T14:59:34;11.50;;;6.90;;
86271;SDS011;76930;50.692;16.628;2024-03-02T15:02:01;13.60;;;8.00;;
86271;SDS011;76930;50.692;16.628;2024-03-02T15:04:30;13.10;;;9.40;;
86271;SDS011;76930;50.692;16.628;2024-03-02T15:06:57;13.90;;;9.60;;